Locustdale, Pennsylvania
Current Conditions -  °F | °C
As of 6:55 PM on Wednesday 22 Oct 2014 (Local Time) from KHZL Reporting Station
Moderate Rain Moderate Rain  
Wind Chill: 40°   Ceiling: 300
Heat Index: 46°   Visibility: 5mi
Dew Point: 45°   Wind: 15mph
Humidity: 93%   Direction: 330°NNW
Pressure: 29.98"   Gusts: 24mph
Location:  40.78°N, 76.38°W
Report Text: KHZL 222255Z AUTO 33013G21KT 5SM RA OVC003 08/07 A2998 RMK AO2 LTG DSNT SE
Loading
Personal Weather Stations






























Interactive Weather Map
Tropical Storm Tracking
New forecast layout! Learn more

10-Day Weather Forecast

Advertisements
Track Severe Weather on mobile